Aviation Digital Data Service (ADDS)

Output produced by TAFs form (0316 UTC 25 May 2016)
found at http://aviationweather.gov/adds/tafs/
 
KCNY 242340Z 2500/2524 23020G30KT P6SM FEW150 SCT250 
     FM250400 24017G26KT P6SM SCT250 
     FM250800 24012KT P6SM FEW250 
     FM252300 21012KT P6SM SCT250